createdAt,value
2024-04-30T00:01:57.529Z,97849.00
2024-04-30T00:04:25.291Z,97854.00
2024-04-30T00:06:52.868Z,97847.00
2024-04-30T00:09:20.392Z,97858.00
2024-04-30T00:11:47.898Z,97853.00
2024-04-30T00:14:15.424Z,97849.00
2024-04-30T00:16:44.623Z,97846.00
2024-04-30T00:19:12.552Z,97838.00
2024-04-30T00:21:46.346Z,97846.00
2024-04-30T00:24:14.111Z,97840.00
2024-04-30T00:26:41.669Z,97816.00
2024-04-30T00:29:09.234Z,97850.00
2024-04-30T00:31:42.248Z,97843.00
2024-04-30T00:34:09.826Z,97829.00
2024-04-30T00:36:40.586Z,97835.00
2024-04-30T00:39:16.092Z,97833.00
2024-04-30T00:41:43.623Z,97820.00
2024-04-30T00:44:11.163Z,97816.00
2024-04-30T00:46:39.354Z,97822.00
2024-04-30T00:49:08.972Z,97834.00
2024-04-30T00:51:36.677Z,97821.00
2024-04-30T00:54:05.133Z,97835.00
2024-04-30T00:56:32.797Z,97821.00
2024-04-30T00:59:01.827Z,97795.00
2024-04-30T01:01:29.576Z,97813.00
2024-04-30T01:03:57.177Z,97807.00
2024-04-30T01:06:24.864Z,97824.00
2024-04-30T01:08:52.399Z,97803.00
2024-04-30T01:11:20.143Z,97794.00
2024-04-30T01:13:47.818Z,97826.00
2024-04-30T01:16:18.344Z,97823.00
2024-04-30T01:18:45.904Z,97815.00
2024-04-30T01:21:13.482Z,97826.00
2024-04-30T01:23:41.103Z,97819.00
2024-04-30T01:26:08.713Z,97819.00
2024-04-30T01:28:36.295Z,97795.00
2024-04-30T01:31:03.957Z,97813.00
2024-04-30T01:33:31.592Z,97813.00
2024-04-30T01:35:59.348Z,97818.00
2024-04-30T01:38:26.967Z,97794.00
2024-04-30T01:40:59.003Z,97820.00
2024-04-30T01:43:26.569Z,97796.00
2024-04-30T01:45:56.972Z,97812.00
2024-04-30T01:48:24.620Z,97783.00
2024-04-30T01:50:52.269Z,97811.00
2024-04-30T01:53:20.371Z,97802.00
2024-04-30T01:55:47.884Z,97806.00
2024-04-30T01:58:15.482Z,97792.00
2024-04-30T02:00:43.058Z,97774.00
2024-04-30T02:03:10.649Z,97806.00
2024-04-30T02:05:38.287Z,97794.00
2024-04-30T02:08:06.233Z,97757.00
2024-04-30T02:10:33.795Z,97791.00
2024-04-30T02:13:01.405Z,97788.00
2024-04-30T02:15:28.962Z,97797.00
2024-04-30T02:17:56.527Z,97752.00
2024-04-30T02:20:24.081Z,97783.00
2024-04-30T02:22:51.690Z,97781.00
2024-04-30T02:25:24.890Z,97768.00
2024-04-30T02:27:52.456Z,97802.00
2024-04-30T02:30:42.859Z,97770.00
2024-04-30T02:33:35.785Z,97745.00
2024-04-30T02:36:06.950Z,97785.00
2024-04-30T02:38:34.513Z,97745.00
2024-04-30T02:41:02.138Z,97779.00
2024-04-30T02:43:29.846Z,97759.00
2024-04-30T02:45:57.484Z,97767.00
2024-04-30T02:48:26.652Z,97751.00
2024-04-30T02:50:54.166Z,97760.00
2024-04-30T02:53:21.846Z,97754.00
2024-04-30T02:55:49.545Z,97777.00
2024-04-30T02:58:17.181Z,97733.00
2024-04-30T03:00:47.233Z,97781.00
2024-04-30T03:03:14.935Z,97775.00
2024-04-30T03:05:42.570Z,97766.00
2024-04-30T03:08:10.185Z,97748.00
2024-04-30T03:10:37.862Z,97743.00
2024-04-30T03:13:05.638Z,97755.00
2024-04-30T03:15:33.329Z,97754.00
2024-04-30T03:18:04.881Z,97712.00
2024-04-30T03:20:32.876Z,97749.00
2024-04-30T03:23:01.783Z,97732.00
2024-04-30T03:25:29.445Z,97735.00
2024-04-30T03:27:59.797Z,97740.00
2024-04-30T03:30:28.197Z,97696.00
2024-04-30T03:32:58.512Z,97731.00
2024-04-30T03:35:27.829Z,97738.00
2024-04-30T03:37:55.675Z,97741.00
2024-04-30T03:40:23.375Z,97722.00
2024-04-30T03:42:53.731Z,97741.00
2024-04-30T03:45:22.067Z,97727.00
2024-04-30T03:47:49.847Z,97724.00
2024-04-30T03:50:17.461Z,97677.00
2024-04-30T03:52:45.043Z,97723.00
2024-04-30T03:55:12.642Z,97677.00
2024-04-30T03:57:40.190Z,97680.00
2024-04-30T04:00:11.167Z,97711.00
2024-04-30T04:02:38.821Z,97715.00
2024-04-30T04:05:06.612Z,97703.00
2024-04-30T04:07:34.235Z,97684.00
2024-04-30T04:10:02.025Z,97689.00
2024-04-30T04:12:48.248Z,97694.00
2024-04-30T04:15:15.803Z,97712.00
2024-04-30T04:17:43.494Z,97721.00
2024-04-30T04:20:11.182Z,97688.00
2024-04-30T04:22:38.856Z,97689.00
2024-04-30T04:25:06.778Z,97705.00
2024-04-30T04:27:34.401Z,97709.00
2024-04-30T04:30:03.168Z,97699.00
2024-04-30T04:32:31.638Z,97700.00
2024-04-30T04:34:59.232Z,97704.00
2024-04-30T04:37:27.631Z,97702.00
2024-04-30T04:39:55.383Z,97693.00
2024-04-30T04:42:22.933Z,97670.00
2024-04-30T04:44:50.485Z,97679.00
2024-04-30T04:47:18.154Z,97685.00
2024-04-30T04:49:45.806Z,97676.00
2024-04-30T04:52:13.546Z,97697.00
2024-04-30T04:54:41.176Z,97700.00
2024-04-30T04:57:08.699Z,97676.00
2024-04-30T04:59:36.234Z,97700.00
2024-04-30T05:02:03.978Z,97698.00
2024-04-30T05:04:31.628Z,97695.00
2024-04-30T05:07:01.071Z,97701.00
2024-04-30T05:09:29.855Z,97693.00
2024-04-30T05:11:57.789Z,97704.00
2024-04-30T05:14:25.326Z,97695.00
2024-04-30T05:16:52.879Z,97697.00
2024-04-30T05:19:20.515Z,97694.00
2024-04-30T05:21:48.350Z,97710.00
2024-04-30T05:24:15.890Z,97700.00
2024-04-30T05:26:43.418Z,97706.00
2024-04-30T05:29:10.935Z,97704.00
2024-04-30T05:31:41.627Z,97700.00
2024-04-30T05:34:09.190Z,97692.00
2024-04-30T05:36:36.719Z,97712.00
2024-04-30T05:39:04.259Z,97687.00
2024-04-30T05:41:32.027Z,97688.00
2024-04-30T05:43:59.520Z,97671.00
2024-04-30T05:46:27.329Z,97674.00
2024-04-30T05:48:55.064Z,97662.00
2024-04-30T05:51:22.838Z,97675.00
2024-04-30T05:53:52.824Z,97670.00
2024-04-30T05:56:21.735Z,97666.00
2024-04-30T05:58:49.254Z,97668.00
2024-04-30T06:01:16.980Z,97680.00
2024-04-30T06:03:44.685Z,97665.00
2024-04-30T06:06:12.650Z,97666.00
2024-04-30T06:08:41.725Z,97671.00
2024-04-30T06:11:10.027Z,97671.00
2024-04-30T06:13:38.021Z,97601.00
2024-04-30T06:16:06.401Z,97672.00
2024-04-30T06:18:34.042Z,97679.00
2024-04-30T06:21:01.591Z,97667.00
2024-04-30T06:23:29.106Z,97672.00
2024-04-30T06:25:57.137Z,97671.00
2024-04-30T06:28:24.738Z,97673.00
2024-04-30T06:30:52.276Z,97669.00
2024-04-30T06:33:19.893Z,97669.00
2024-04-30T06:35:47.517Z,97654.00
2024-04-30T06:38:15.146Z,97673.00
2024-04-30T06:40:42.770Z,97662.00
2024-04-30T06:43:10.324Z,97662.00
2024-04-30T06:45:37.851Z,97652.00
2024-04-30T06:48:07.966Z,97655.00
2024-04-30T06:50:36.196Z,97655.00
2024-04-30T06:53:03.736Z,97643.00
2024-04-30T06:55:31.307Z,97637.00
2024-04-30T06:57:58.883Z,97638.00
2024-04-30T07:00:26.429Z,97636.00
2024-04-30T07:02:54.042Z,97636.00
2024-04-30T07:05:21.698Z,97637.00
2024-04-30T07:07:49.313Z,97623.00
2024-04-30T07:10:16.837Z,97620.00
2024-04-30T07:12:44.624Z,97609.00
2024-04-30T07:15:12.198Z,97613.00
2024-04-30T07:17:42.877Z,97608.00
2024-04-30T07:20:11.055Z,97597.00
2024-04-30T07:22:38.609Z,97610.00
2024-04-30T07:25:08.260Z,97595.00
2024-04-30T07:27:35.937Z,97575.00
2024-04-30T07:30:03.727Z,97596.00
2024-04-30T07:32:31.365Z,97589.00
2024-04-30T07:35:01.327Z,97584.00
2024-04-30T07:37:28.969Z,97588.00
2024-04-30T07:39:56.475Z,97576.00
2024-04-30T07:42:24.298Z,97578.00
2024-04-30T07:44:51.909Z,97562.00
2024-04-30T07:47:19.547Z,97558.00
2024-04-30T07:49:47.114Z,97556.00
2024-04-30T07:52:18.370Z,97562.00
2024-04-30T07:54:47.811Z,97556.00
2024-04-30T07:57:16.977Z,97566.00
2024-04-30T07:59:44.564Z,97561.00
2024-04-30T08:02:14.567Z,97550.00
2024-04-30T08:04:43.731Z,97530.00
2024-04-30T08:07:11.481Z,97551.00
2024-04-30T08:09:39.132Z,97559.00
2024-04-30T08:12:07.278Z,97560.00
2024-04-30T08:14:36.478Z,97522.00
2024-04-30T08:17:05.401Z,97550.00
2024-04-30T08:19:34.501Z,97546.00
2024-04-30T08:22:02.063Z,97554.00
2024-04-30T08:24:34.634Z,97531.00
2024-04-30T08:27:02.188Z,97559.00
2024-04-30T08:29:32.491Z,97534.00
2024-04-30T08:32:00.525Z,97552.00
2024-04-30T08:34:28.134Z,97556.00
2024-04-30T08:36:55.784Z,97562.00
2024-04-30T08:39:23.349Z,97553.00
2024-04-30T08:41:51.160Z,97554.00
2024-04-30T08:44:20.623Z,97547.00
2024-04-30T08:46:52.176Z,97559.00
2024-04-30T08:49:43.053Z,97551.00
2024-04-30T08:52:17.581Z,97566.00
2024-04-30T08:54:45.299Z,97561.00
2024-04-30T08:57:12.823Z,97557.00
2024-04-30T08:59:40.360Z,97570.00
2024-04-30T09:02:09.050Z,97556.00
2024-04-30T09:04:40.716Z,97557.00
2024-04-30T09:07:08.472Z,97546.00
2024-04-30T09:09:36.024Z,97557.00
2024-04-30T09:12:04.643Z,97557.00
2024-04-30T09:14:32.328Z,97550.00
2024-04-30T09:17:00.049Z,97543.00
2024-04-30T09:19:30.417Z,97539.00
2024-04-30T09:22:07.910Z,97537.00
2024-04-30T09:24:35.633Z,97520.00
2024-04-30T09:27:03.189Z,97533.00
2024-04-30T09:29:39.350Z,97533.00
2024-04-30T09:32:08.575Z,97531.00
2024-04-30T09:34:43.676Z,97533.00
2024-04-30T09:37:22.294Z,97532.00
2024-04-30T09:39:53.917Z,97527.00
2024-04-30T09:42:23.533Z,97520.00
2024-04-30T09:44:51.791Z,97518.00
2024-04-30T09:47:22.203Z,97510.00
2024-04-30T09:49:50.247Z,97494.00
2024-04-30T09:52:20.505Z,97501.00
2024-04-30T09:54:48.193Z,97502.00
2024-04-30T09:57:17.608Z,97503.00
2024-04-30T09:59:45.244Z,97491.00
2024-04-30T10:02:16.548Z,97505.00
2024-04-30T10:04:45.820Z,97503.00
2024-04-30T10:07:15.214Z,97502.00
2024-04-30T10:09:56.436Z,97493.00
2024-04-30T10:12:28.750Z,97488.00
2024-04-30T10:14:58.431Z,97478.00
2024-04-30T10:17:26.048Z,97491.00
2024-04-30T10:19:53.708Z,97484.00
2024-04-30T10:22:21.472Z,97481.00
2024-04-30T10:24:49.006Z,97475.00
2024-04-30T10:27:23.371Z,97477.00
2024-04-30T10:29:51.124Z,97483.00
2024-04-30T10:32:18.746Z,97472.00
2024-04-30T10:34:59.344Z,97486.00
2024-04-30T10:37:31.312Z,97472.00
2024-04-30T10:40:13.031Z,97457.00
2024-04-30T10:42:40.667Z,97468.00
2024-04-30T10:45:08.711Z,97463.00
2024-04-30T10:47:37.302Z,97462.00
2024-04-30T10:50:17.975Z,97466.00
2024-04-30T10:52:47.977Z,97471.00
2024-04-30T10:55:18.836Z,97463.00
2024-04-30T10:57:46.735Z,97464.00
2024-04-30T11:00:14.448Z,97448.00
2024-04-30T11:02:47.975Z,97441.00
2024-04-30T11:05:23.868Z,97444.00
2024-04-30T11:07:58.728Z,97438.00
2024-04-30T11:10:30.723Z,97439.00
2024-04-30T11:12:59.422Z,97427.00
2024-04-30T11:15:27.418Z,97433.00
2024-04-30T11:17:55.223Z,97439.00
2024-04-30T11:20:23.196Z,97423.00
2024-04-30T11:22:50.766Z,97418.00
2024-04-30T11:25:18.406Z,97421.00
2024-04-30T11:27:46.200Z,97426.00
2024-04-30T11:30:13.818Z,97425.00
2024-04-30T11:32:41.857Z,97411.00
2024-04-30T11:35:09.547Z,97410.00
2024-04-30T11:37:37.202Z,97405.00
2024-04-30T11:40:05.273Z,97414.00
2024-04-30T11:42:39.097Z,97403.00
2024-04-30T11:45:15.019Z,97405.00
2024-04-30T11:47:43.052Z,97407.00
2024-04-30T11:50:10.801Z,97389.00
2024-04-30T11:52:40.596Z,97395.00
2024-04-30T11:55:08.672Z,97397.00
2024-04-30T11:57:37.152Z,97393.00
2024-04-30T12:00:05.442Z,97390.00
2024-04-30T12:02:33.158Z,97385.00
2024-04-30T12:05:02.106Z,97382.00
2024-04-30T12:07:29.875Z,97391.00
2024-04-30T12:09:57.506Z,97370.00
2024-04-30T12:12:25.025Z,97378.00
2024-04-30T12:14:52.641Z,97369.00
2024-04-30T12:17:20.683Z,97344.00
2024-04-30T12:19:48.356Z,97355.00
2024-04-30T12:22:15.923Z,97362.00
2024-04-30T12:24:43.446Z,97350.00
2024-04-30T12:27:10.962Z,97351.00
2024-04-30T12:29:38.470Z,97346.00
2024-04-30T12:32:10.606Z,97339.00
2024-04-30T12:34:39.418Z,97341.00
2024-04-30T12:37:07.900Z,97324.00
2024-04-30T12:39:35.529Z,97335.00
2024-04-30T12:42:03.173Z,97336.00
2024-04-30T12:44:30.683Z,97323.00
2024-04-30T12:46:58.230Z,97329.00
2024-04-30T12:49:25.819Z,97331.00
2024-04-30T12:51:53.408Z,97327.00
2024-04-30T12:54:23.446Z,97326.00
2024-04-30T12:56:50.995Z,97321.00
2024-04-30T12:59:18.496Z,97326.00
2024-04-30T13:01:46.149Z,97329.00
2024-04-30T13:04:13.845Z,97321.00
2024-04-30T13:06:42.075Z,97315.00
2024-04-30T13:09:09.788Z,97303.00
2024-04-30T13:11:37.932Z,97304.00
2024-04-30T13:14:05.585Z,97295.00
2024-04-30T13:16:33.745Z,97297.00
2024-04-30T13:19:01.423Z,97299.00
2024-04-30T13:21:29.062Z,97295.00
2024-04-30T13:23:56.579Z,97288.00
2024-04-30T13:26:24.180Z,97286.00
2024-04-30T13:28:51.766Z,97296.00
2024-04-30T13:31:19.328Z,97292.00
2024-04-30T13:33:46.875Z,97278.00
2024-04-30T13:36:14.527Z,97271.00
2024-04-30T13:38:42.051Z,97289.00
2024-04-30T13:41:09.620Z,97291.00
2024-04-30T13:43:38.473Z,97287.00
2024-04-30T13:46:06.279Z,97280.00
2024-04-30T13:48:33.915Z,97279.00
2024-04-30T13:51:01.704Z,97280.00
2024-04-30T13:53:29.237Z,97270.00
2024-04-30T13:55:56.744Z,97281.00
2024-04-30T13:58:24.338Z,97276.00
2024-04-30T14:00:51.898Z,97278.00
2024-04-30T14:03:19.478Z,97284.00
2024-04-30T14:05:47.299Z,97259.00
2024-04-30T14:08:15.190Z,97259.00
2024-04-30T14:10:42.852Z,97261.00
2024-04-30T14:13:10.835Z,97261.00
2024-04-30T14:15:38.405Z,97249.00
2024-04-30T14:18:07.263Z,97244.00
2024-04-30T14:20:35.084Z,97240.00
2024-04-30T14:23:02.643Z,97259.00
2024-04-30T14:25:30.239Z,97241.00
2024-04-30T14:27:57.782Z,97240.00
2024-04-30T14:30:25.332Z,97237.00
2024-04-30T14:32:53.214Z,97240.00
2024-04-30T14:35:20.932Z,97238.00
2024-04-30T14:37:48.636Z,97231.00
2024-04-30T14:40:16.431Z,97246.00
2024-04-30T14:42:43.975Z,97237.00
2024-04-30T14:45:11.521Z,97233.00
2024-04-30T14:47:39.381Z,97231.00
2024-04-30T14:50:07.252Z,97232.00
2024-04-30T14:52:34.784Z,97226.00
2024-04-30T14:55:02.346Z,97222.00
2024-04-30T14:57:29.910Z,97213.00
2024-04-30T14:59:57.415Z,97209.00
2024-04-30T15:02:24.970Z,97218.00
2024-04-30T15:04:52.551Z,97202.00
2024-04-30T15:07:20.618Z,97205.00
2024-04-30T15:09:55.833Z,97200.00
2024-04-30T15:12:23.409Z,97194.00
2024-04-30T15:14:52.350Z,97201.00
2024-04-30T15:17:22.443Z,97195.00
2024-04-30T15:19:50.075Z,97201.00
2024-04-30T15:22:17.690Z,97203.00
2024-04-30T15:24:48.300Z,97208.00
2024-04-30T15:27:15.912Z,97207.00
2024-04-30T15:29:43.571Z,97191.00
2024-04-30T15:32:11.100Z,97191.00
2024-04-30T15:34:39.702Z,97201.00
2024-04-30T15:37:07.343Z,97191.00
2024-04-30T15:39:35.128Z,97196.00
2024-04-30T15:42:02.668Z,97190.00
2024-04-30T15:44:30.186Z,97187.00
2024-04-30T15:46:57.751Z,97194.00
2024-04-30T15:49:25.342Z,97188.00
2024-04-30T15:51:52.904Z,97181.00
2024-04-30T15:54:22.892Z,97185.00
2024-04-30T15:56:54.718Z,97191.00
2024-04-30T15:59:28.777Z,97183.00
2024-04-30T16:01:56.433Z,97195.00
2024-04-30T16:04:24.197Z,97196.00
2024-04-30T16:06:51.730Z,97199.00
2024-04-30T16:09:19.294Z,97193.00
2024-04-30T16:11:46.887Z,97203.00
2024-04-30T16:14:14.560Z,97204.00
2024-04-30T16:16:42.612Z,97192.00
2024-04-30T16:19:13.467Z,97191.00
2024-04-30T16:21:41.155Z,97204.00
2024-04-30T16:24:13.003Z,97199.00
2024-04-30T16:26:43.551Z,97197.00
2024-04-30T16:29:11.126Z,97192.00
2024-04-30T16:31:39.056Z,97200.00
2024-04-30T16:34:07.910Z,97184.00
2024-04-30T16:36:35.497Z,97186.00
2024-04-30T16:39:03.130Z,97198.00
2024-04-30T16:41:30.638Z,97189.00
2024-04-30T16:43:58.378Z,97194.00
2024-04-30T16:46:25.886Z,97186.00
2024-04-30T16:48:54.560Z,97189.00
2024-04-30T16:51:22.225Z,97179.00
2024-04-30T16:53:49.783Z,97187.00
2024-04-30T16:56:18.786Z,97184.00
2024-04-30T16:58:51.075Z,97177.00
2024-04-30T17:01:19.007Z,97174.00
2024-04-30T17:03:46.810Z,97170.00
2024-04-30T17:06:14.582Z,97176.00
2024-04-30T17:08:42.364Z,97167.00
2024-04-30T17:11:11.029Z,97177.00
2024-04-30T17:13:45.376Z,97175.00
2024-04-30T17:16:23.950Z,97171.00
2024-04-30T17:18:51.766Z,97182.00
2024-04-30T17:21:22.444Z,97179.00
2024-04-30T17:23:50.443Z,97162.00
2024-04-30T17:26:26.453Z,97162.00
2024-04-30T17:28:55.103Z,97175.00
2024-04-30T17:31:22.685Z,97161.00
2024-04-30T17:33:55.736Z,97157.00
2024-04-30T17:36:23.491Z,97158.00
2024-04-30T17:38:51.216Z,97164.00
2024-04-30T17:41:28.513Z,97172.00
2024-04-30T17:43:56.060Z,97163.00
2024-04-30T17:46:26.768Z,97162.00
2024-04-30T17:48:55.985Z,97168.00
2024-04-30T17:51:25.714Z,97156.00
2024-04-30T17:53:53.848Z,97161.00
2024-04-30T17:56:21.579Z,97163.00
2024-04-30T17:58:49.251Z,97169.00
2024-04-30T18:01:18.708Z,97164.00
2024-04-30T18:03:55.411Z,97167.00
2024-04-30T18:06:23.520Z,97173.00
2024-04-30T18:08:58.039Z,97168.00
2024-04-30T18:11:30.163Z,97163.00
2024-04-30T18:13:58.269Z,97161.00
2024-04-30T18:16:29.904Z,97176.00
2024-04-30T18:18:57.719Z,97162.00
2024-04-30T18:21:29.555Z,97170.00
2024-04-30T18:23:57.110Z,97161.00
2024-04-30T18:26:24.674Z,97168.00
2024-04-30T18:28:55.348Z,97167.00
2024-04-30T18:31:25.425Z,97170.00
2024-04-30T18:33:54.199Z,97161.00
2024-04-30T18:36:23.830Z,97169.00
2024-04-30T18:38:51.599Z,97156.00
2024-04-30T18:41:25.076Z,97164.00
2024-04-30T18:43:58.386Z,97166.00
2024-04-30T18:46:26.045Z,97146.00
2024-04-30T18:48:53.756Z,97154.00
2024-04-30T18:51:21.640Z,97149.00
2024-04-30T18:53:50.401Z,97155.00
2024-04-30T18:56:18.654Z,97148.00
2024-04-30T18:58:47.515Z,97168.00
2024-04-30T19:01:16.380Z,97159.00
2024-04-30T19:03:47.386Z,97147.00
2024-04-30T19:06:19.177Z,97148.00
2024-04-30T19:08:46.743Z,97153.00
2024-04-30T19:11:14.365Z,97160.00
2024-04-30T19:13:44.513Z,97156.00
2024-04-30T19:16:12.223Z,97150.00
2024-04-30T19:18:39.920Z,97146.00
2024-04-30T19:21:07.758Z,97147.00
2024-04-30T19:23:35.983Z,97156.00
2024-04-30T19:26:04.258Z,97153.00
2024-04-30T19:28:31.932Z,97149.00
2024-04-30T19:30:59.598Z,97152.00
2024-04-30T19:33:27.352Z,97163.00
2024-04-30T19:35:55.025Z,97159.00
2024-04-30T19:38:22.603Z,97162.00
2024-04-30T19:40:50.387Z,97160.00
2024-04-30T19:43:17.978Z,97150.00
2024-04-30T19:45:45.567Z,97163.00
2024-04-30T19:48:16.885Z,97149.00
2024-04-30T19:50:47.083Z,97162.00
2024-04-30T19:53:14.662Z,97161.00
2024-04-30T19:55:42.346Z,97156.00
2024-04-30T19:58:10.132Z,97148.00
2024-04-30T20:00:37.947Z,97152.00
2024-04-30T20:03:06.010Z,97156.00
2024-04-30T20:05:33.661Z,97161.00
2024-04-30T20:08:01.159Z,97162.00
2024-04-30T20:10:29.202Z,97142.00
2024-04-30T20:12:56.976Z,97146.00
2024-04-30T20:15:24.610Z,97148.00
2024-04-30T20:17:52.260Z,97148.00
2024-04-30T20:20:19.906Z,97154.00
2024-04-30T20:22:47.439Z,97137.00
2024-04-30T20:25:15.282Z,97133.00
2024-04-30T20:27:42.859Z,97142.00
2024-04-30T20:30:12.205Z,97139.00
2024-04-30T20:32:41.043Z,97146.00
2024-04-30T20:35:09.301Z,97128.00
2024-04-30T20:37:36.840Z,97139.00
2024-04-30T20:40:04.693Z,97124.00
2024-04-30T20:42:32.426Z,97125.00
2024-04-30T20:45:00.227Z,97127.00
2024-04-30T20:47:27.851Z,97125.00
2024-04-30T20:49:55.422Z,97133.00
2024-04-30T20:52:23.078Z,97133.00
2024-04-30T20:54:50.697Z,97133.00
2024-04-30T20:57:18.278Z,97127.00
2024-04-30T20:59:45.814Z,97123.00
2024-04-30T21:02:13.403Z,97109.00
2024-04-30T21:04:40.948Z,97126.00
2024-04-30T21:07:08.563Z,97111.00
2024-04-30T21:09:36.420Z,97106.00
2024-04-30T21:12:04.162Z,97110.00
2024-04-30T21:14:31.695Z,97105.00
2024-04-30T21:17:00.005Z,97105.00
2024-04-30T21:19:28.615Z,97103.00
2024-04-30T21:21:57.796Z,97091.00
2024-04-30T21:24:25.634Z,97101.00
2024-04-30T21:26:53.175Z,97099.00
2024-04-30T21:29:21.172Z,97090.00
2024-04-30T21:31:48.988Z,97099.00
2024-04-30T21:34:16.598Z,97069.00
2024-04-30T21:36:46.500Z,97082.00
2024-04-30T21:39:14.786Z,97078.00
2024-04-30T21:41:42.415Z,97075.00
2024-04-30T21:44:09.980Z,97077.00
2024-04-30T21:46:42.261Z,97083.00
2024-04-30T21:49:09.945Z,97072.00
2024-04-30T21:51:37.649Z,97089.00
2024-04-30T21:54:05.450Z,97065.00
2024-04-30T21:56:33.540Z,97052.00
2024-04-30T21:59:01.125Z,97063.00
2024-04-30T22:01:28.781Z,97064.00
2024-04-30T22:03:56.651Z,97045.00
2024-04-30T22:06:24.692Z,97035.00
2024-04-30T22:08:52.604Z,97041.00
2024-04-30T22:11:21.781Z,97053.00
2024-04-30T22:13:49.695Z,97051.00
2024-04-30T22:16:17.421Z,97042.00
2024-04-30T22:18:45.313Z,97048.00
2024-04-30T22:21:15.322Z,97053.00
2024-04-30T22:23:45.019Z,97037.00
2024-04-30T22:26:12.701Z,97050.00
2024-04-30T22:28:40.300Z,97047.00
2024-04-30T22:31:09.891Z,97044.00
2024-04-30T22:33:38.035Z,97039.00
2024-04-30T22:36:06.235Z,97049.00
2024-04-30T22:38:33.847Z,97042.00
2024-04-30T22:41:01.389Z,97039.00
2024-04-30T22:43:28.979Z,97042.00
2024-04-30T22:45:57.324Z,97027.00
2024-04-30T22:48:25.105Z,97033.00
2024-04-30T22:50:52.728Z,97038.00
2024-04-30T22:53:20.346Z,97026.00
2024-04-30T22:55:47.855Z,97024.00
2024-04-30T22:58:15.421Z,97020.00
2024-04-30T23:00:43.040Z,97030.00
2024-04-30T23:03:10.623Z,97023.00
2024-04-30T23:05:38.143Z,97017.00
2024-04-30T23:08:06.202Z,97021.00
2024-04-30T23:10:34.311Z,97019.00
2024-04-30T23:13:01.974Z,97021.00
2024-04-30T23:15:29.544Z,97021.00
2024-04-30T23:17:57.233Z,97015.00
2024-04-30T23:20:24.831Z,97018.00
2024-04-30T23:22:52.389Z,97009.00
2024-04-30T23:25:19.883Z,97017.00
2024-04-30T23:27:47.961Z,97012.00
2024-04-30T23:30:15.769Z,96999.00
2024-04-30T23:32:43.312Z,97012.00
2024-04-30T23:35:10.888Z,96989.00
2024-04-30T23:37:38.388Z,96990.00
2024-04-30T23:40:07.722Z,97011.00
2024-04-30T23:42:38.435Z,97005.00
2024-04-30T23:45:07.015Z,96988.00
2024-04-30T23:47:35.050Z,96985.00
2024-04-30T23:50:03.416Z,96992.00
2024-04-30T23:52:31.025Z,97002.00
2024-04-30T23:54:58.837Z,96961.00
2024-04-30T23:57:26.516Z,96959.00
2024-04-30T23:59:55.411Z,96976.00
